Time;durP1;ratioP1;P1;durP2;ratioP2;P2;SDS_P1;SDS_P2;PMS_P1;PMS_P2;Temp;Humidity;BMP_temperature;BMP_pressure;BME280_temperature;BME280_humidity;BME280_pressure;Samples;Min_cycle;Max_cycle;Signal;HPM_P1;HPM_P2
2021/12/27 00:01:32;;;;;;;15.30;7.00;;;-4.00;99.90;;;;;;4923497;29;20220;-90
2021/12/27 00:04:01;;;;;;;13.03;6.73;;;-4.00;99.90;;;;;;4922952;29;20208;-92
2021/12/27 00:06:27;;;;;;;10.53;5.77;;;-4.00;99.90;;;;;;4923620;29;20293;-90
2021/12/27 00:08:55;;;;;;;16.37;7.07;;;-4.00;99.90;;;;;;4926084;29;20224;-92
2021/12/27 00:11:21;;;;;;;14.40;7.40;;;-4.00;99.90;;;;;;4926192;29;20550;-92
2021/12/27 00:13:55;;;;;;;12.13;6.37;;;-4.00;99.90;;;;;;4926794;29;20180;-90
2021/12/27 00:16:21;;;;;;;11.87;6.20;;;-4.00;99.90;;;;;;4926378;29;20223;-90
2021/12/27 00:19:08;;;;;;;15.13;6.80;;;-4.00;99.90;;;;;;4927519;29;20215;-90
2021/12/27 00:21:39;;;;;;;14.00;6.60;;;-4.00;99.90;;;;;;4941558;29;20214;-91
2021/12/27 00:24:07;;;;;;;13.23;7.03;;;-4.00;99.90;;;;;;4925445;29;20183;-91
2021/12/27 00:26:40;;;;;;;17.77;7.27;;;-3.90;99.90;;;;;;4925409;29;20718;-91
2021/12/27 00:29:06;;;;;;;12.87;6.90;;;-4.00;99.90;;;;;;4932733;29;20256;-90
2021/12/27 00:31:33;;;;;;;14.70;7.03;;;-4.00;99.90;;;;;;4934528;29;20217;-91
2021/12/27 00:34:00;;;;;;;13.60;7.13;;;-4.00;99.90;;;;;;4944857;29;20188;-92
2021/12/27 00:36:29;;;;;;;11.90;6.60;;;-4.00;99.90;;;;;;4942456;29;20321;-92
2021/12/27 00:38:59;;;;;;;12.83;6.13;;;-4.00;99.90;;;;;;4943178;29;20233;-94
2021/12/27 00:44:15;;;;;;;10.63;6.00;;;-3.90;99.90;;;;;;5200044;23;20242;-93
2021/12/27 00:46:51;;;;;;;13.27;6.90;;;-3.90;99.90;;;;;;4968089;28;20692;-93
2021/12/27 00:49:20;;;;;;;12.03;6.73;;;-4.00;99.90;;;;;;4967326;28;20305;-94
2021/12/27 00:51:50;;;;;;;14.67;6.87;;;-4.00;99.90;;;;;;4961281;28;20213;-92
2021/12/27 00:54:18;;;;;;;13.40;6.93;;;-4.00;99.90;;;;;;4976165;28;20190;-93
2021/12/27 00:56:46;;;;;;;14.50;7.40;;;-4.00;99.90;;;;;;4980853;28;20571;-95
2021/12/27 00:59:12;;;;;;;14.77;6.67;;;-3.90;99.90;;;;;;4980603;28;20177;-93
2021/12/27 01:01:39;;;;;;;12.63;6.70;;;-4.00;99.90;;;;;;4980252;28;20206;-92
2021/12/27 01:04:11;;;;;;;14.10;7.10;;;-4.00;99.90;;;;;;4980205;28;20175;-95
2021/12/27 01:06:44;;;;;;;13.73;6.97;;;-4.00;99.90;;;;;;4975659;28;20215;-92
2021/12/27 01:12:29;;;;;;;13.67;7.03;;;-3.90;99.90;;;;;;4990805;28;20175;-95
2021/12/27 01:17:45;;;;;;;14.40;6.50;;;-3.90;99.90;;;;;;4977330;28;20315;-93
2021/12/27 01:20:14;;;;;;;13.20;6.90;;;-3.90;99.90;;;;;;4960743;28;20708;-93
2021/12/27 01:22:49;;;;;;;12.53;6.60;;;-3.80;99.90;;;;;;4960837;28;20230;-95
2021/12/27 01:25:34;;;;;;;14.73;7.13;;;-3.90;99.90;;;;;;4960613;28;20223;-93
2021/12/27 01:28:03;;;;;;;11.87;6.80;;;-3.80;99.90;;;;;;4960697;28;20558;-95
2021/12/27 01:30:47;;;;;;;14.53;6.93;;;-3.80;99.90;;;;;;4960751;28;20345;-93
2021/12/27 01:33:16;;;;;;;15.20;6.80;;;-3.80;99.90;;;;;;4959716;28;20227;-93
2021/12/27 01:35:41;;;;;;;12.87;6.93;;;-3.80;99.90;;;;;;4961168;28;20277;-94
2021/12/27 01:38:11;;;;;;;14.90;6.80;;;-3.80;99.90;;;;;;4960606;28;20247;-94
2021/12/27 01:40:47;;;;;;;12.10;6.90;;;-3.80;99.90;;;;;;4956884;29;20218;-95
2021/12/27 01:43:21;;;;;;;14.47;6.93;;;-3.80;99.90;;;;;;4940696;29;20241;-92
2021/12/27 01:46:09;;;;;;;14.73;7.43;;;-3.80;99.90;;;;;;4963461;28;20200;-93
2021/12/27 01:48:56;;;;;;;12.43;6.90;;;-3.80;99.90;;;;;;4965618;28;20232;-92
2021/12/27 01:51:30;;;;;;;17.13;7.43;;;-3.80;99.90;;;;;;4976678;28;20192;-93
2021/12/27 01:54:03;;;;;;;17.80;7.83;;;-3.80;99.90;;;;;;4960685;28;20191;-93
2021/12/27 01:56:47;;;;;;;13.67;7.07;;;-3.70;99.90;;;;;;4976005;28;20310;-94
2021/12/27 01:59:35;;;;;;;14.10;7.00;;;-3.70;99.90;;;;;;4960799;28;20187;-95
2021/12/27 02:02:07;;;;;;;14.83;7.73;;;-3.70;99.90;;;;;;4959678;28;20698;-95
2021/12/27 02:04:39;;;;;;;13.63;6.90;;;-3.70;99.90;;;;;;4960973;28;20650;-94
2021/12/27 02:07:05;;;;;;;12.57;6.87;;;-3.70;99.90;;;;;;4960000;28;20212;-95
2021/12/27 02:09:44;;;;;;;13.17;6.80;;;-3.70;99.90;;;;;;4960045;28;20252;-94
2021/12/27 02:12:34;;;;;;;19.93;7.87;;;-3.70;99.90;;;;;;4975141;28;20259;-92
2021/12/27 02:15:09;;;;;;;13.23;7.07;;;-3.70;99.90;;;;;;4959479;28;20195;-95
2021/12/27 02:17:44;;;;;;;14.37;6.77;;;-3.70;99.90;;;;;;4975889;28;20667;-94
2021/12/27 02:20:22;;;;;;;18.13;7.57;;;-3.70;99.90;;;;;;4976068;28;20679;-92
2021/12/27 02:23:01;;;;;;;14.73;7.27;;;-3.60;99.90;;;;;;4975996;28;20181;-92
2021/12/27 02:25:31;;;;;;;13.90;6.83;;;-3.60;99.90;;;;;;4976047;28;20706;-93
2021/12/27 02:28:08;;;;;;;12.57;7.03;;;-3.60;99.90;;;;;;4975585;28;20207;-94
2021/12/27 02:30:52;;;;;;;14.00;7.27;;;-3.60;99.90;;;;;;4959690;28;20263;-93
2021/12/27 02:33:37;;;;;;;14.83;7.00;;;-3.60;99.90;;;;;;4959679;28;20188;-95
2021/12/27 02:36:33;;;;;;;13.70;7.20;;;-3.60;99.90;;;;;;4975686;28;20184;-93
2021/12/27 02:38:59;;;;;;;17.60;7.50;;;-3.60;99.90;;;;;;4975639;28;20658;-93
2021/12/27 02:41:27;;;;;;;15.53;7.73;;;-3.60;99.90;;;;;;4959502;28;20204;-93
2021/12/27 02:43:56;;;;;;;16.60;7.63;;;-3.50;99.90;;;;;;4959184;28;20285;-94
2021/12/27 02:46:26;;;;;;;16.03;7.97;;;-3.60;99.90;;;;;;4959815;28;20664;-93
2021/12/27 02:49:02;;;;;;;17.10;8.43;;;-3.60;99.90;;;;;;4975343;28;20212;-94
2021/12/27 02:51:30;;;;;;;14.20;7.37;;;-3.60;99.90;;;;;;4963152;28;20185;-93
2021/12/27 02:53:59;;;;;;;15.90;7.33;;;-3.60;99.90;;;;;;4978465;28;20328;-93
2021/12/27 02:56:45;;;;;;;15.13;7.63;;;-3.60;99.90;;;;;;4978246;28;20211;-93
2021/12/27 02:59:15;;;;;;;14.53;7.27;;;-3.50;99.90;;;;;;4978433;28;20183;-95
2021/12/27 03:01:43;;;;;;;15.77;8.00;;;-3.50;99.90;;;;;;4978353;28;20225;-95
2021/12/27 03:04:24;;;;;;;15.07;8.43;;;-3.50;99.90;;;;;;4976194;28;20221;-94
2021/12/27 03:06:50;;;;;;;21.03;8.73;;;-3.50;99.90;;;;;;4978185;28;20217;-94
2021/12/27 03:09:19;;;;;;;15.47;7.77;;;-3.50;99.90;;;;;;4978216;28;20188;-93
2021/12/27 03:11:45;;;;;;;16.30;8.17;;;-3.40;99.90;;;;;;4978283;28;20214;-95
2021/12/27 03:14:31;;;;;;;17.83;9.10;;;-3.40;99.90;;;;;;4966060;28;20216;-93
2021/12/27 03:16:59;;;;;;;19.93;8.90;;;-3.40;99.90;;;;;;4958791;28;20212;-95
2021/12/27 03:19:33;;;;;;;16.87;8.93;;;-3.40;99.90;;;;;;4958918;28;20709;-93
2021/12/27 03:22:09;;;;;;;15.87;8.30;;;-3.40;99.90;;;;;;4958951;28;20208;-93
2021/12/27 03:24:39;;;;;;;16.00;8.63;;;-3.40;99.90;;;;;;4959047;28;20173;-94
2021/12/27 03:27:05;;;;;;;18.47;8.70;;;-3.40;99.90;;;;;;4958723;28;20674;-92
2021/12/27 03:29:44;;;;;;;20.90;9.47;;;-3.30;99.90;;;;;;4963492;28;20271;-93
2021/12/27 03:32:11;;;;;;;21.27;9.50;;;-3.30;99.90;;;;;;4963692;28;20235;-94
2021/12/27 03:34:42;;;;;;;18.53;9.47;;;-3.30;99.90;;;;;;4959071;28;20216;-94
2021/12/27 03:37:14;;;;;;;19.37;9.93;;;-3.30;99.90;;;;;;4974738;28;20256;-95
2021/12/27 03:39:40;;;;;;;20.00;9.33;;;-3.30;99.90;;;;;;4958316;28;20228;-93
2021/12/27 03:42:06;;;;;;;19.37;9.30;;;-3.30;99.90;;;;;;4971483;28;20664;-92
2021/12/27 03:44:33;;;;;;;16.60;8.70;;;-3.20;99.90;;;;;;4977475;28;20232;-94
2021/12/27 03:47:02;;;;;;;21.83;9.67;;;-3.20;99.90;;;;;;4977623;28;20251;-93
2021/12/27 03:49:28;;;;;;;18.60;9.90;;;-3.20;99.90;;;;;;4977689;28;20172;-93
2021/12/27 03:52:04;;;;;;;18.43;9.67;;;-3.20;99.90;;;;;;4977735;28;20172;-94
2021/12/27 03:54:31;;;;;;;18.17;8.97;;;-3.20;99.90;;;;;;4977739;28;20176;-93
2021/12/27 03:57:09;;;;;;;19.90;9.60;;;-3.20;99.90;;;;;;4977865;28;20207;-94
2021/12/27 03:59:53;;;;;;;19.17;9.93;;;-3.20;99.90;;;;;;4978306;28;20263;-95
2021/12/27 04:02:25;;;;;;;18.47;9.63;;;-3.20;99.90;;;;;;4977622;28;20215;-95
2021/12/27 04:04:54;;;;;;;17.97;9.30;;;-3.20;99.90;;;;;;4977505;28;20181;-93
2021/12/27 04:07:22;;;;;;;17.87;9.13;;;-3.10;99.90;;;;;;4977400;28;20211;-93
2021/12/27 04:09:52;;;;;;;21.43;10.10;;;-3.20;99.90;;;;;;4977524;28;20176;-93
2021/12/27 04:12:19;;;;;;;17.27;9.37;;;-3.10;99.90;;;;;;4977441;28;20180;-92
2021/12/27 04:14:55;;;;;;;19.10;10.30;;;-3.20;99.90;;;;;;4977212;28;20181;-95
2021/12/27 04:17:30;;;;;;;19.73;9.63;;;-3.10;99.90;;;;;;4977170;28;20266;-93
2021/12/27 04:19:59;;;;;;;20.10;9.83;;;-3.10;99.90;;;;;;4977206;28;20182;-93
2021/12/27 04:22:33;;;;;;;19.57;9.93;;;-3.10;99.90;;;;;;4977222;28;20257;-95
2021/12/27 04:25:04;;;;;;;19.07;10.23;;;-3.10;99.90;;;;;;4977174;28;20169;-93
2021/12/27 04:27:39;;;;;;;17.13;9.43;;;-3.10;99.90;;;;;;4976910;28;20677;-94
2021/12/27 04:30:06;;;;;;;19.67;9.77;;;-3.10;99.90;;;;;;4977401;28;20179;-95
2021/12/27 04:32:43;;;;;;;18.47;9.90;;;-3.10;99.90;;;;;;4977666;28;20176;-93
2021/12/27 04:35:10;;;;;;;20.90;10.30;;;-3.10;99.90;;;;;;4977534;28;20267;-93
2021/12/27 04:37:37;;;;;;;24.73;9.77;;;-3.10;99.90;;;;;;4977315;28;20214;-95
2021/12/27 04:40:18;;;;;;;23.57;10.87;;;-3.10;99.90;;;;;;4977260;28;20180;-94
2021/12/27 04:42:50;;;;;;;23.53;10.90;;;-3.00;99.90;;;;;;4976872;28;20211;-94
2021/12/27 04:45:17;;;;;;;20.50;10.53;;;-3.00;99.90;;;;;;4977875;28;20231;-95
2021/12/27 04:47:50;;;;;;;19.40;10.40;;;-3.00;99.90;;;;;;4977334;28;20266;-93
2021/12/27 04:50:18;;;;;;;18.73;9.80;;;-3.00;99.90;;;;;;4977298;28;20669;-93
2021/12/27 04:52:47;;;;;;;22.97;10.50;;;-3.00;99.90;;;;;;4976984;28;20642;-94
2021/12/27 04:55:14;;;;;;;17.33;10.53;;;-3.00;99.90;;;;;;4980811;28;20639;-95
2021/12/27 04:57:40;;;;;;;23.73;10.93;;;-3.00;99.90;;;;;;4980587;28;20204;-93
2021/12/27 05:00:14;;;;;;;20.63;10.57;;;-3.00;99.90;;;;;;4980934;28;20643;-95
2021/12/27 05:02:42;;;;;;;24.53;10.53;;;-3.00;99.90;;;;;;4980579;28;20220;-95
2021/12/27 05:05:13;;;;;;;21.37;10.77;;;-2.90;99.90;;;;;;4980739;28;20178;-94
2021/12/27 05:07:44;;;;;;;24.67;11.03;;;-2.90;99.90;;;;;;4980745;28;20204;-94
2021/12/27 05:10:21;;;;;;;18.50;9.97;;;-2.90;99.90;;;;;;4980546;28;20211;-93
2021/12/27 05:12:49;;;;;;;20.60;10.30;;;-2.90;99.90;;;;;;4980679;28;20191;-94
2021/12/27 05:15:22;;;;;;;21.63;10.43;;;-2.90;99.90;;;;;;4970810;28;20202;-95
2021/12/27 05:17:54;;;;;;;21.73;10.93;;;-2.90;99.90;;;;;;4961027;28;20245;-93
2021/12/27 05:20:24;;;;;;;26.70;11.20;;;-2.90;99.90;;;;;;4961511;28;20277;-93
2021/12/27 05:23:08;;;;;;;21.50;11.00;;;-2.80;99.90;;;;;;4961142;28;20232;-94
2021/12/27 05:25:34;;;;;;;20.97;9.90;;;-2.80;99.90;;;;;;4960953;28;20255;-94
2021/12/27 05:28:20;;;;;;;22.30;10.17;;;-2.80;99.90;;;;;;4961172;28;20682;-95
2021/12/27 05:30:59;;;;;;;19.83;10.50;;;-2.80;99.90;;;;;;4960912;28;20201;-93
2021/12/27 05:33:25;;;;;;;22.80;11.03;;;-2.90;99.90;;;;;;4960976;28;20169;-95
2021/12/27 05:36:06;;;;;;;21.87;11.30;;;-2.80;99.90;;;;;;4961058;28;20185;-93
2021/12/27 05:38:37;;;;;;;20.17;10.10;;;-2.80;99.90;;;;;;4960688;28;20257;-93
2021/12/27 05:41:19;;;;;;;20.80;10.80;;;-2.80;99.90;;;;;;4960369;28;20209;-93
2021/12/27 05:43:46;;;;;;;19.13;10.37;;;-2.80;99.90;;;;;;4960500;28;20228;-95
2021/12/27 05:46:23;;;;;;;22.13;10.57;;;-2.80;99.90;;;;;;4960651;28;20296;-93
2021/12/27 05:48:58;;;;;;;21.53;11.13;;;-2.80;99.90;;;;;;4960993;28;20180;-93
2021/12/27 05:51:24;;;;;;;20.60;10.50;;;-2.80;99.90;;;;;;4960788;28;20204;-93
2021/12/27 05:53:50;;;;;;;20.97;11.13;;;-2.80;99.90;;;;;;4960326;28;20235;-95
2021/12/27 05:56:19;;;;;;;22.33;11.20;;;-2.80;99.90;;;;;;4959983;28;20260;-93
2021/12/27 05:58:47;;;;;;;23.13;11.50;;;-2.80;99.90;;;;;;4960610;28;20189;-93
2021/12/27 06:01:41;;;;;;;24.73;11.20;;;-2.80;99.90;;;;;;4960097;28;20206;-93
2021/12/27 06:04:19;;;;;;;19.13;10.23;;;-2.80;99.90;;;;;;4959630;28;20272;-93
2021/12/27 06:06:46;;;;;;;21.30;10.87;;;-2.80;99.90;;;;;;4959951;28;20204;-94
2021/12/27 06:09:16;;;;;;;24.47;11.97;;;-2.80;99.90;;;;;;4959955;28;20201;-92
2021/12/27 06:11:44;;;;;;;21.77;12.07;;;-2.90;99.90;;;;;;4960015;28;20180;-94
2021/12/27 06:14:16;;;;;;;25.67;11.70;;;-2.90;99.90;;;;;;4959899;28;20279;-95
2021/12/27 06:17:10;;;;;;;22.53;11.67;;;-2.90;99.90;;;;;;4959887;28;20651;-93
2021/12/27 06:19:36;;;;;;;22.47;11.00;;;-2.90;99.90;;;;;;4959888;28;20184;-93
2021/12/27 06:22:37;;;;;;;25.00;12.07;;;-2.90;99.90;;;;;;4963103;28;20565;-94
2021/12/27 06:25:11;;;;;;;21.17;11.77;;;-2.90;99.90;;;;;;4979128;28;20168;-93
2021/12/27 06:27:59;;;;;;;23.17;10.87;;;-2.80;99.90;;;;;;4978891;28;20200;-94
2021/12/27 06:30:42;;;;;;;21.17;11.03;;;-2.80;99.90;;;;;;4979071;28;20524;-95
2021/12/27 06:33:10;;;;;;;24.90;12.23;;;-2.90;99.90;;;;;;4979063;28;20180;-93
2021/12/27 06:36:11;;;;;;;22.57;12.53;;;-2.80;99.90;;;;;;4978659;28;20172;-95
2021/12/27 06:38:49;;;;;;;22.53;12.13;;;-2.80;99.90;;;;;;4978844;28;20173;-93
2021/12/27 06:41:20;;;;;;;22.87;11.47;;;-2.80;99.90;;;;;;4978657;28;20263;-93
2021/12/27 06:43:48;;;;;;;24.17;11.27;;;-2.80;99.90;;;;;;4978589;28;20255;-92
2021/12/27 06:49:48;;;;;;;22.10;11.50;;;-2.80;99.90;;;;;;4995893;28;20293;-94
2021/12/27 06:52:29;;;;;;;22.17;11.13;;;-2.80;99.90;;;;;;4978642;28;20185;-94
2021/12/27 06:55:16;;;;;;;22.73;12.67;;;-2.80;99.90;;;;;;4978872;28;20196;-94
2021/12/27 06:57:56;;;;;;;20.90;11.07;;;-2.80;99.90;;;;;;4978263;28;20215;-94
2021/12/27 07:00:24;;;;;;;20.90;11.33;;;-2.70;99.90;;;;;;4978353;28;20200;-94
2021/12/27 07:03:16;;;;;;;20.30;10.70;;;-2.70;99.90;;;;;;4978207;28;20205;-94
2021/12/27 07:05:48;;;;;;;19.80;10.90;;;-2.70;99.90;;;;;;4978194;28;20557;-94
2021/12/27 07:08:18;;;;;;;23.80;11.93;;;-2.70;99.90;;;;;;4978346;28;20255;-95
2021/12/27 07:10:50;;;;;;;21.30;11.37;;;-2.70;99.90;;;;;;4978448;28;20177;-94
2021/12/27 07:13:25;;;;;;;22.13;11.57;;;-2.60;99.90;;;;;;4978271;28;20640;-95
2021/12/27 07:15:59;;;;;;;26.13;12.40;;;-2.60;99.90;;;;;;4977520;28;20227;-95
2021/12/27 07:18:33;;;;;;;26.27;12.50;;;-2.70;99.90;;;;;;4977884;28;20178;-96
2021/12/27 07:21:06;;;;;;;21.00;11.63;;;-2.60;99.90;;;;;;4977976;28;20678;-95
2021/12/27 07:23:33;;;;;;;22.73;11.77;;;-2.60;99.90;;;;;;4978521;28;20230;-93
2021/12/27 07:25:59;;;;;;;21.10;11.97;;;-2.60;99.90;;;;;;4978118;28;20246;-93
2021/12/27 07:28:25;;;;;;;20.90;12.17;;;-2.60;99.90;;;;;;4978294;28;20189;-94
2021/12/27 07:30:57;;;;;;;25.67;12.43;;;-2.60;99.90;;;;;;4978131;28;20216;-93
2021/12/27 07:33:25;;;;;;;27.30;13.67;;;-2.60;99.90;;;;;;4978804;28;20177;-92
2021/12/27 07:35:51;;;;;;;21.13;11.57;;;-2.50;99.90;;;;;;4978287;28;20181;-92
2021/12/27 07:38:21;;;;;;;21.90;11.80;;;-2.60;99.90;;;;;;4977626;28;20215;-93
2021/12/27 07:40:47;;;;;;;20.27;11.77;;;-2.50;99.90;;;;;;4977545;28;20191;-93
2021/12/27 07:43:27;;;;;;;23.57;12.80;;;-2.50;99.90;;;;;;4973337;28;20301;-91
2021/12/27 07:45:59;;;;;;;21.70;11.93;;;-2.60;99.90;;;;;;4958125;28;20565;-91
2021/12/27 07:48:27;;;;;;;25.40;12.53;;;-2.50;99.90;;;;;;4958530;28;20189;-93
2021/12/27 07:50:58;;;;;;;23.17;12.60;;;-2.50;99.90;;;;;;4958702;28;20190;-92
2021/12/27 07:53:27;;;;;;;34.67;12.70;;;-2.50;99.90;;;;;;4958289;28;20189;-91
2021/12/27 07:55:53;;;;;;;20.07;11.60;;;-2.40;99.90;;;;;;4957998;28;20186;-93
2021/12/27 07:58:19;;;;;;;27.20;12.57;;;-2.40;99.90;;;;;;4958148;28;20217;-92
2021/12/27 08:00:52;;;;;;;23.93;11.63;;;-2.40;99.90;;;;;;4958257;28;20225;-94
2021/12/27 08:03:21;;;;;;;22.07;12.60;;;-2.40;99.90;;;;;;4957394;28;20193;-94
2021/12/27 08:05:48;;;;;;;24.63;12.63;;;-2.30;99.90;;;;;;4958194;28;20240;-92
2021/12/27 08:08:26;;;;;;;24.90;12.83;;;-2.30;99.90;;;;;;4958130;28;20228;-93
2021/12/27 08:10:54;;;;;;;22.93;12.73;;;-2.30;99.90;;;;;;4958125;28;20196;-92
2021/12/27 08:13:22;;;;;;;22.33;12.23;;;-2.20;99.90;;;;;;4958264;28;20197;-92
2021/12/27 08:15:48;;;;;;;22.73;12.63;;;-2.20;99.90;;;;;;4958043;28;20186;-94
2021/12/27 08:18:14;;;;;;;25.83;13.43;;;-2.20;99.90;;;;;;4958119;28;20214;-93
2021/12/27 08:20:44;;;;;;;23.10;12.03;;;-2.10;99.90;;;;;;4957975;28;20186;-92
2021/12/27 08:23:12;;;;;;;20.80;12.07;;;-2.10;99.90;;;;;;4957548;28;20332;-94
2021/12/27 08:25:44;;;;;;;32.40;13.93;;;-2.10;99.90;;;;;;4957942;28;20171;-93
2021/12/27 08:28:20;;;;;;;27.03;12.70;;;-2.00;99.90;;;;;;4959992;28;20220;-94
2021/12/27 08:30:55;;;;;;;22.50;12.27;;;-2.00;99.90;;;;;;4961784;28;20761;-93
2021/12/27 08:33:32;;;;;;;24.73;13.00;;;-2.00;99.90;;;;;;4961924;28;20179;-93
2021/12/27 08:36:05;;;;;;;22.43;12.97;;;-1.90;99.90;;;;;;4961645;28;20650;-94
2021/12/27 08:38:32;;;;;;;23.90;14.03;;;-1.90;99.90;;;;;;4961777;28;20230;-93
2021/12/27 08:41:10;;;;;;;22.73;12.77;;;-1.90;99.90;;;;;;4962145;28;20198;-93
2021/12/27 08:43:36;;;;;;;21.03;12.10;;;-1.80;99.90;;;;;;4961338;28;20219;-95
2021/12/27 08:46:05;;;;;;;24.30;13.10;;;-1.80;99.90;;;;;;4961639;28;20187;-92
2021/12/27 08:48:31;;;;;;;27.13;14.40;;;-1.70;99.90;;;;;;4961606;28;20187;-93
2021/12/27 08:51:04;;;;;;;20.47;12.80;;;-1.70;99.90;;;;;;4961545;28;20180;-93
2021/12/27 08:53:31;;;;;;;22.23;13.03;;;-1.80;99.90;;;;;;4961339;28;20206;-92
2021/12/27 08:56:06;;;;;;;23.57;13.40;;;-1.70;99.90;;;;;;4961358;28;20183;-95
2021/12/27 08:58:35;;;;;;;23.00;13.27;;;-1.70;99.90;;;;;;4961251;28;20176;-93
2021/12/27 09:01:03;;;;;;;24.53;13.37;;;-1.70;99.90;;;;;;4960828;28;20211;-93
2021/12/27 09:03:35;;;;;;;22.27;12.80;;;-1.60;99.90;;;;;;4960790;28;20179;-94
2021/12/27 09:06:04;;;;;;;22.57;13.07;;;-1.60;99.90;;;;;;4961077;28;20210;-93
2021/12/27 09:08:31;;;;;;;28.13;14.27;;;-1.60;99.90;;;;;;4961150;28;20710;-93
2021/12/27 09:11:03;;;;;;;21.70;13.23;;;-1.60;99.90;;;;;;4961469;28;20495;-94
2021/12/27 09:13:37;;;;;;;23.80;13.43;;;-1.60;99.90;;;;;;4961052;28;20184;-94
2021/12/27 09:16:32;;;;;;;25.03;12.60;;;-1.60;99.90;;;;;;4961306;28;20199;-94
2021/12/27 09:18:58;;;;;;;24.30;14.17;;;-1.50;99.90;;;;;;4960589;28;20190;-92
2021/12/27 09:21:24;;;;;;;24.23;13.53;;;-1.50;99.90;;;;;;4960924;28;20203;-93
2021/12/27 09:23:52;;;;;;;27.20;13.50;;;-1.40;99.90;;;;;;4945505;28;20194;-93
2021/12/27 09:26:26;;;;;;;24.17;13.40;;;-1.40;99.90;;;;;;4960897;28;20293;-93
2021/12/27 09:29:03;;;;;;;24.53;13.20;;;-1.40;99.90;;;;;;4961033;28;20235;-94
2021/12/27 09:31:30;;;;;;;25.43;14.20;;;-1.40;99.90;;;;;;4960383;28;20177;-94
2021/12/27 09:33:55;;;;;;;24.97;13.87;;;-1.40;99.90;;;;;;4961022;28;20180;-92
2021/12/27 09:36:21;;;;;;;24.83;13.80;;;-1.40;99.90;;;;;;4961238;28;20212;-95
2021/12/27 09:39:14;;;;;;;27.17;13.77;;;-1.30;99.90;;;;;;4960063;28;20192;-93
2021/12/27 09:41:45;;;;;;;23.93;12.73;;;-1.30;99.90;;;;;;4960600;28;20209;-94
2021/12/27 09:44:21;;;;;;;23.63;13.57;;;-1.20;99.90;;;;;;4960185;28;20225;-94
2021/12/27 09:46:47;;;;;;;22.70;13.93;;;-1.20;99.90;;;;;;4959995;28;20215;-93
2021/12/27 09:49:26;;;;;;;25.90;14.90;;;-1.20;99.90;;;;;;4960367;28;20559;-94
2021/12/27 09:51:55;;;;;;;22.60;13.60;;;-1.10;99.90;;;;;;4960293;28;20184;-92
2021/12/27 09:54:32;;;;;;;22.97;13.17;;;-1.10;99.90;;;;;;4960291;28;20185;-94
2021/12/27 09:57:07;;;;;;;21.57;13.50;;;-1.10;99.90;;;;;;4960390;28;20223;-93
2021/12/27 09:59:34;;;;;;;25.80;13.93;;;-1.00;99.90;;;;;;4960133;28;20216;-93
2021/12/27 10:02:00;;;;;;;27.60;14.03;;;-1.00;99.90;;;;;;4959826;28;20299;-94
2021/12/27 10:04:26;;;;;;;22.53;14.00;;;-0.90;99.90;;;;;;4960503;28;20279;-92
2021/12/27 10:07:27;;;;;;;27.63;13.97;;;-0.90;99.90;;;;;;4960110;28;20669;-94
2021/12/27 10:10:00;;;;;;;26.03;14.43;;;-0.80;99.90;;;;;;4959910;28;20191;-94
2021/12/27 10:12:29;;;;;;;23.30;13.87;;;-0.80;99.90;;;;;;4960048;28;20181;-95
2021/12/27 10:15:15;;;;;;;25.17;14.63;;;-0.70;99.90;;;;;;4960200;28;20184;-95
2021/12/27 10:17:42;;;;;;;24.27;13.80;;;-0.60;99.90;;;;;;4959929;28;20212;-94
2021/12/27 10:20:35;;;;;;;23.50;13.77;;;-0.60;99.90;;;;;;4960332;28;20204;-93
2021/12/27 10:23:00;;;;;;;23.60;13.67;;;-0.40;99.90;;;;;;4960402;28;20200;-93
2021/12/27 10:25:28;;;;;;;20.33;13.47;;;-0.40;99.90;;;;;;4959930;28;20240;-95
2021/12/27 10:28:01;;;;;;;24.20;14.30;;;-0.30;99.90;;;;;;4960045;28;20200;-94
2021/12/27 10:30:36;;;;;;;26.47;14.10;;;-0.30;99.90;;;;;;4960249;28;20186;-94
2021/12/27 10:33:12;;;;;;;23.43;14.43;;;-0.30;99.90;;;;;;4959988;28;20184;-95
2021/12/27 10:36:03;;;;;;;25.57;13.70;;;-0.20;99.90;;;;;;4960895;28;20268;-93
2021/12/27 10:38:38;;;;;;;24.27;13.97;;;-0.20;99.90;;;;;;4960418;28;20573;-95
2021/12/27 10:41:10;;;;;;;22.93;13.40;;;-0.10;99.90;;;;;;4960210;28;20212;-95
2021/12/27 10:44:08;;;;;;;26.50;15.10;;;-0.10;99.90;;;;;;4960293;28;20303;-94
2021/12/27 10:46:42;;;;;;;23.80;13.93;;;-0.10;99.90;;;;;;4961703;28;20201;-95
2021/12/27 10:49:08;;;;;;;27.73;15.00;;;0.00;99.90;;;;;;4962242;28;20172;-93
2021/12/27 10:51:47;;;;;;;24.60;15.43;;;0.00;99.90;;;;;;4960989;28;20195;-93
2021/12/27 10:54:35;;;;;;;24.20;14.73;;;0.00;99.90;;;;;;4961007;28;20374;-95
2021/12/27 10:57:03;;;;;;;23.27;14.47;;;0.10;99.90;;;;;;4961999;28;20208;-92
2021/12/27 10:59:52;;;;;;;22.60;13.87;;;0.10;99.90;;;;;;4961129;28;20212;-93
2021/12/27 11:02:33;;;;;;;22.50;14.23;;;0.10;99.90;;;;;;4961609;28;20737;-94
2021/12/27 11:05:14;;;;;;;21.67;14.37;;;0.20;99.90;;;;;;4960578;28;20180;-93
2021/12/27 11:07:43;;;;;;;22.90;13.70;;;0.10;99.90;;;;;;4961775;28;20294;-94
2021/12/27 11:10:20;;;;;;;24.23;14.47;;;0.10;99.90;;;;;;4961314;28;20182;-96
2021/12/27 11:12:50;;;;;;;24.50;14.27;;;0.10;99.90;;;;;;4962679;28;20189;-94
2021/12/27 11:15:19;;;;;;;24.30;14.90;;;0.20;99.90;;;;;;4963379;28;20173;-95
2021/12/27 11:17:59;;;;;;;26.50;14.50;;;0.20;99.90;;;;;;4963785;28;20209;-94
2021/12/27 11:20:28;;;;;;;23.43;14.33;;;0.10;99.90;;;;;;4964937;28;20188;-94
2021/12/27 11:22:58;;;;;;;22.40;14.83;;;0.10;99.90;;;;;;4963420;28;20206;-93
2021/12/27 11:25:44;;;;;;;19.47;13.77;;;0.20;99.90;;;;;;4964048;28;20181;-96
2021/12/27 11:28:39;;;;;;;23.00;15.03;;;0.20;99.90;;;;;;4965157;28;20204;-96
2021/12/27 11:31:23;;;;;;;22.97;14.83;;;0.20;99.90;;;;;;4963289;28;20189;-95
2021/12/27 11:34:08;;;;;;;24.60;15.23;;;0.20;99.90;;;;;;4965351;28;20232;-96
2021/12/27 11:36:40;;;;;;;23.97;14.67;;;0.30;99.90;;;;;;4966398;28;20232;-94
2021/12/27 11:39:39;;;;;;;26.27;14.80;;;0.30;99.90;;;;;;4965404;28;20224;-94
2021/12/27 11:42:11;;;;;;;26.27;15.57;;;0.30;99.90;;;;;;4965463;28;20202;-93
2021/12/27 11:44:49;;;;;;;20.93;13.47;;;0.40;99.90;;;;;;4966291;28;20228;-94
2021/12/27 11:47:32;;;;;;;25.53;15.87;;;0.40;99.90;;;;;;4967455;28;20259;-96
2021/12/27 11:50:14;;;;;;;22.07;14.73;;;0.50;99.90;;;;;;4966192;28;20185;-96
2021/12/27 11:52:55;;;;;;;24.57;14.93;;;0.50;99.90;;;;;;4968041;28;20193;-94
2021/12/27 11:55:36;;;;;;;24.93;14.47;;;0.60;99.90;;;;;;4965149;28;20251;-96
2021/12/27 11:58:34;;;;;;;22.17;14.73;;;0.60;99.90;;;;;;4965947;28;20785;-95
2021/12/27 12:01:37;;;;;;;22.63;14.77;;;0.70;99.90;;;;;;4966767;28;20200;-95
2021/12/27 12:04:06;;;;;;;21.47;14.43;;;0.60;99.90;;;;;;4910837;28;20187;-94
2021/12/27 12:06:43;;;;;;;25.33;15.57;;;0.70;99.90;;;;;;4964863;28;20203;-95
2021/12/27 12:09:30;;;;;;;22.47;15.17;;;0.60;99.90;;;;;;4965427;28;20270;-94
2021/12/27 12:12:15;;;;;;;23.70;14.63;;;0.70;99.90;;;;;;4966776;28;20188;-95
2021/12/27 12:14:43;;;;;;;24.43;14.67;;;0.70;99.90;;;;;;4966832;28;20188;-94
2021/12/27 12:17:14;;;;;;;26.33;15.60;;;0.70;99.90;;;;;;4966450;28;20301;-93
2021/12/27 12:19:49;;;;;;;26.83;15.23;;;0.70;99.90;;;;;;4965036;28;20188;-94
2021/12/27 12:22:37;;;;;;;23.30;15.23;;;0.70;99.90;;;;;;4965285;28;20271;-96
2021/12/27 12:25:22;;;;;;;21.53;14.53;;;0.80;99.90;;;;;;4964493;28;20183;-94
2021/12/27 12:28:02;;;;;;;24.80;15.27;;;0.80;99.90;;;;;;4967283;28;20681;-95
2021/12/27 12:30:50;;;;;;;23.30;15.60;;;0.80;99.90;;;;;;4967191;28;20646;-93
2021/12/27 12:33:21;;;;;;;25.40;15.20;;;0.80;99.90;;;;;;4967016;28;20181;-95
2021/12/27 12:35:51;;;;;;;24.57;14.73;;;0.80;99.90;;;;;;4966770;28;20274;-95
2021/12/27 12:38:38;;;;;;;23.50;15.40;;;0.80;99.90;;;;;;4965567;28;20212;-95
2021/12/27 12:41:13;;;;;;;26.37;15.47;;;0.80;99.90;;;;;;4965536;28;20215;-95
2021/12/27 12:44:24;;;;;;;25.90;15.57;;;0.80;99.90;;;;;;4966003;28;20211;-93
2021/12/27 12:47:00;;;;;;;25.40;15.57;;;0.80;99.90;;;;;;4944424;28;20216;-94
2021/12/27 12:49:32;;;;;;;25.27;16.07;;;0.90;99.90;;;;;;4966572;28;20192;-94
2021/12/27 12:52:10;;;;;;;27.43;16.30;;;1.00;99.90;;;;;;4966844;28;20185;-94
2021/12/27 12:54:39;;;;;;;26.00;15.57;;;1.00;99.90;;;;;;4966229;28;20222;-93
2021/12/27 12:57:15;;;;;;;26.70;14.90;;;1.00;99.90;;;;;;4967082;28;20213;-94
2021/12/27 12:59:58;;;;;;;22.97;14.60;;;1.00;99.90;;;;;;4967455;28;20212;-94
2021/12/27 13:02:29;;;;;;;25.10;14.20;;;1.10;99.90;;;;;;4966588;28;20578;-93
2021/12/27 13:05:29;;;;;;;23.87;15.40;;;1.00;99.90;;;;;;4966851;28;20181;-94
2021/12/27 13:08:12;;;;;;;22.67;15.37;;;1.00;99.90;;;;;;4966616;28;20220;-95
2021/12/27 13:10:39;;;;;;;24.40;15.40;;;1.00;99.90;;;;;;4967980;28;20185;-95
2021/12/27 13:13:11;;;;;;;24.53;15.57;;;1.00;99.90;;;;;;4967837;28;20259;-94
2021/12/27 13:15:47;;;;;;;21.30;15.07;;;1.00;99.90;;;;;;4970812;28;20193;-94
2021/12/27 13:18:17;;;;;;;26.30;16.27;;;1.00;99.90;;;;;;4970536;28;20211;-95
2021/12/27 13:20:55;;;;;;;20.80;14.83;;;1.00;99.90;;;;;;4970015;28;20272;-95